Main page
METAR-TAF:

METAR-TAF

Airports :

Bou Saada Airport

Bou Saâda, Algeria

latitude: 35-20N, longitude: 004-12E, elevation: 461 m

Current weather observation

The report was made 42 minutes ago, at 15:00 UTC
Wind 6 kt from the North
Temperature 26°C
Humidity 48%
Pressure 1013 hPa
Visibility 10 km or more
Few clouds at a height of 3300 ft
Scattered clouds at a height of 20000 ft

METAR: DAAD 201500Z 35006KT 9999 FEW033 SCT200 26/14 Q1013

Time: 16:42 (15:42 UTC)

Forecast

The report was made 1 hour and 42 minutes ago, at 14:00 UTC
Forecast valid from 20 at 15 UTC to 20 at 24 UTC
Wind 8 kt from the East/Southeast
Visibility 10 km or more
Few clouds at a height of 3300 ft
Scattered clouds at a height of 20000 ft

TAF: DAAD 201400Z 2015/2024 12008KT 9999 FEW033 SCT200

Weather observations and forecasts of more than 4000 airports (METAR and TAF reports).

The available stations are represented by yellow and red dots on the map.

Hover mouse over dot to see the name of the station.

Then click to see weather observations and forecasts.

To change the map : click on the green buttons with a black cross to zoom in, on the green button with a dash to zoom out, or on the green arrows for adjacent maps.


METAR-TAF: